Terminal Aerodrome Forecast
Issued by NWS

Home | Current Version | Previous Version | Graphics & Text | Print | Product List | Glossary On
Versions: 1 2 3 4 5 6 7 8 9 10 11 12 13 14 15 16 17 18
054
FTUS43 KFGF 221739
TAFBJI
TAF
KBJI 221739Z 2218/2318 02007KT P6SM OVC015
     FM221900 01008KT P6SM -RA OVC010
     FM222000 01009KT P6SM -RA OVC008
     FM222100 36009KT 5SM BR OVC008
      TEMPO 2221/2222 2SM -RA BR OVC003
     FM222300 36009KT P6SM OVC008
     FM230900 36006KT P6SM BKN035
     FM231000 36006KT P6SM BKN025
     FM231400 01006KT P6SM BKN035=

USA.gov is the U.S. government's official web portal to all federal, state and local government web resources and services.